Time;durP1;ratioP1;P1;durP2;ratioP2;P2;SDS_P1;SDS_P2;PMS_P1;PMS_P2;Temp;Humidity;BMP_temperature;BMP_pressure;BME280_temperature;BME280_humidity;BME280_pressure;Samples;Min_cycle;Max_cycle;Signal;HPM_P1;HPM_P2
2021/04/02 00:00:21;;;;;;;21.27;12.55;;;;;;;8.67;100.00;98207.41;1749238;79;21034;-69
2021/04/02 00:02:56;;;;;;;25.75;11.95;;;;;;;8.65;100.00;98207.01;1784953;77;21625;-69
2021/04/02 00:05:30;;;;;;;17.80;12.50;;;;;;;8.62;100.00;98208.37;1736028;81;21168;-69
2021/04/02 00:08:03;;;;;;;21.00;12.20;;;;;;;8.58;100.00;98206.67;1811139;77;22121;-68
2021/04/02 00:10:48;;;;;;;23.42;15.93;;;;;;;8.54;100.00;98199.27;1809727;77;21065;-68
2021/04/02 00:13:46;;;;;;;18.07;11.83;;;;;;;8.50;100.00;98191.84;1822193;77;21142;-68
2021/04/02 00:16:45;;;;;;;22.20;12.63;;;;;;;8.51;100.00;98191.39;1782947;79;21082;-68
2021/04/02 00:19:26;;;;;;;18.73;11.80;;;;;;;8.50;100.00;98186.58;1801478;77;20942;-69
2021/04/02 00:22:10;;;;;;;18.77;11.53;;;;;;;8.51;100.00;98179.56;1805908;77;21377;-69
2021/04/02 00:24:58;;;;;;;24.60;13.40;;;;;;;8.57;100.00;98184.77;1809950;78;22717;-69
2021/04/02 00:27:38;;;;;;;32.30;14.83;;;;;;;8.54;100.00;98181.31;1783296;79;21057;-69
2021/04/02 00:30:28;;;;;;;24.80;13.38;;;;;;;8.56;100.00;98178.22;1808021;78;21283;-69
2021/04/02 00:33:01;;;;;;;86.32;38.42;;;;;;;8.56;100.00;98174.28;1808415;78;20887;-68
2021/04/02 00:35:34;;;;;;;70.15;31.73;;;;;;;8.55;100.00;98172.09;1805770;78;21050;-68
2021/04/02 00:38:30;;;;;;;77.00;46.45;;;;;;;8.54;100.00;98174.75;1791536;78;21014;-68
2021/04/02 00:41:12;;;;;;;24.20;14.85;;;;;;;8.53;100.00;98173.01;1807984;78;20962;-66
2021/04/02 00:43:48;;;;;;;22.45;11.93;;;;;;;8.50;100.00;98169.94;1806106;79;21370;-68
2021/04/02 00:46:19;;;;;;;24.10;11.05;;;;;;;8.47;100.00;98162.97;1801021;79;21583;-68
2021/04/02 00:48:50;;;;;;;18.42;11.38;;;;;;;8.47;100.00;98156.40;1779560;79;21440;-67
2021/04/02 00:51:28;;;;;;;19.12;11.10;;;;;;;8.47;100.00;98160.34;1777132;79;20938;-67
2021/04/02 00:53:58;;;;;;;16.48;10.88;;;;;;;8.48;100.00;98155.50;1777508;79;21446;-67
2021/04/02 00:56:28;;;;;;;20.77;12.18;;;;;;;8.48;100.00;98163.84;1750598;79;21377;-67
2021/04/02 00:58:59;;;;;;;19.75;12.90;;;;;;;8.47;100.00;98159.47;1744059;79;20974;-67
2021/04/02 01:01:29;;;;;;;20.50;12.00;;;;;;;8.47;100.00;98155.53;1806165;78;20935;-67
2021/04/02 01:04:00;;;;;;;17.40;10.75;;;;;;;8.49;100.00;98152.44;1808160;78;21025;-67
2021/04/02 01:06:40;;;;;;;21.45;11.05;;;;;;;8.44;100.00;98143.30;1783320;78;21140;-67
2021/04/02 01:09:23;;;;;;;17.52;11.00;;;;;;;8.45;100.00;98137.59;1806774;78;21365;-67
2021/04/02 01:11:56;;;;;;;18.60;11.20;;;;;;;8.43;100.00;98133.68;1794150;79;20994;-69
2021/04/02 01:14:32;;;;;;;19.52;11.35;;;;;;;8.41;100.00;98131.96;1776839;79;21610;-69
2021/04/02 01:17:06;;;;;;;18.48;11.20;;;;;;;8.36;100.00;98120.20;1792344;78;21282;-68
2021/04/02 01:19:44;;;;;;;16.65;11.45;;;;;;;8.35;100.00;98124.16;1797472;79;21126;-67
2021/04/02 01:22:22;;;;;;;25.62;12.18;;;;;;;8.32;100.00;98128.11;1809066;79;21367;-69
2021/04/02 01:25:11;;;;;;;24.80;11.50;;;;;;;8.32;100.00;98134.23;1814002;77;21766;-66
2021/04/02 01:28:04;;;;;;;22.75;11.53;;;;;;;8.32;100.00;98124.17;1814656;77;20938;-69
2021/04/02 01:30:45;;;;;;;26.17;11.68;;;;;;;8.33;100.00;98124.59;1812748;77;21191;-67
2021/04/02 01:33:17;;;;;;;20.88;11.80;;;;;;;8.36;100.00;98125.91;1783537;79;20914;-70
2021/04/02 01:35:48;;;;;;;19.73;11.43;;;;;;;8.39;100.00;98125.41;1782713;79;21568;-69
2021/04/02 01:38:27;;;;;;;;;;;;;;;8.43;100.00;98117.91;1785115;80;21521;-69
2021/04/02 01:41:07;;;;;;;18.35;10.32;;;;;;;8.48;100.00;98116.09;1779146;79;20509;-69
2021/04/02 01:43:46;;;;;;;17.55;10.53;;;;;;;8.51;100.00;98113.86;1780043;79;21187;-68
2021/04/02 01:46:18;;;;;;;21.45;10.45;;;;;;;8.55;100.00;98118.66;1758685;79;21116;-68
2021/04/02 01:49:00;;;;;;;18.57;11.25;;;;;;;8.54;100.00;98113.84;1812188;77;21359;-68
2021/04/02 01:51:35;;;;;;;19.23;10.48;;;;;;;8.59;100.00;98112.47;1781829;79;21610;-68
2021/04/02 01:54:07;;;;;;;17.32;10.85;;;;;;;8.64;100.00;98109.32;1787668;77;21082;-68
2021/04/02 01:56:50;;;;;;;21.33;11.25;;;;;;;8.67;100.00;98104.88;1804443;77;21540;-70
2021/04/02 01:59:22;;;;;;;20.55;12.03;;;;;;;8.67;100.00;98104.88;1783409;79;20930;-69
2021/04/02 02:01:57;;;;;;;22.67;11.10;;;;;;;8.66;100.00;98095.70;1792218;79;21340;-68
2021/04/02 02:04:33;;;;;;;18.10;11.83;;;;;;;8.60;100.00;98096.67;1814076;79;21018;-68
2021/04/02 02:07:08;;;;;;;21.87;12.23;;;;;;;8.56;100.00;98084.91;1812500;79;21009;-68
2021/04/02 02:12:31;;;;;;;20.75;11.90;;;;;;;8.50;100.00;98088.47;1839444;77;22865;-68
2021/04/02 02:15:14;;;;;;;23.38;10.10;;;;;;;8.43;100.00;98099.95;1739993;81;20979;-67
2021/04/02 02:17:59;;;;;;;21.07;10.30;;;;;;;8.44;100.00;98102.56;1743312;81;21451;-68
2021/04/02 02:20:47;;;;;;;;;;;;;;;;;;;;;
2021/04/02 02:23:35;;;;;;;17.15;11.40;;;;;;;8.45;100.00;98086.35;1839032;75;23215;-69
2021/04/02 02:26:08;;;;;;;21.07;11.83;;;;;;;8.39;100.00;98079.42;1850630;77;21123;-69
2021/04/02 02:28:43;;;;;;;19.92;11.40;;;;;;;8.34;100.00;98074.69;1799987;77;21369;-68
2021/04/02 02:31:18;;;;;;;17.90;11.60;;;;;;;8.31;100.00;98073.83;1845071;76;21028;-68
2021/04/02 02:33:51;;;;;;;19.77;10.95;;;;;;;8.31;100.00;98065.95;1791118;78;21677;-68
2021/04/02 02:36:27;;;;;;;19.55;11.57;;;;;;;8.30;100.00;98062.89;1801666;78;20989;-69
2021/04/02 02:38:58;;;;;;;20.45;12.35;;;;;;;8.27;100.00;98055.92;1805191;77;20953;-68
2021/04/02 02:41:31;;;;;;;21.70;12.50;;;;;;;8.26;100.00;98054.19;1829457;77;21424;-70
2021/04/02 02:44:04;;;;;;;21.62;11.57;;;;;;;8.25;100.00;98051.14;1808612;77;20953;-69
2021/04/02 02:46:41;;;;;;;19.77;11.22;;;;;;;8.26;100.00;98048.06;1817108;76;21048;-70
2021/04/02 02:49:20;;;;;;;18.45;10.63;;;;;;;8.23;100.00;98042.41;1832323;76;21086;-66
2021/04/02 02:51:58;;;;;;;20.55;11.93;;;;;;;8.23;100.00;98029.28;1759529;79;21103;-69
2021/04/02 02:54:32;;;;;;;20.72;11.28;;;;;;;8.19;100.00;98020.57;1758571;80;21423;-70
2021/04/02 02:57:16;;;;;;;21.05;11.18;;;;;;;8.20;100.00;98022.31;1770768;80;21550;-69
2021/04/02 02:59:50;;;;;;;26.20;11.30;;;;;;;8.18;100.00;98009.64;1770311;79;21179;-69
2021/04/02 03:02:21;;;;;;;19.35;11.08;;;;;;;8.18;100.00;98004.83;1774671;79;21108;-68
2021/04/02 03:04:56;;;;;;;18.92;11.55;;;;;;;8.13;100.00;97998.34;1772311;79;21087;-67
2021/04/02 03:07:30;;;;;;;21.52;11.33;;;;;;;8.09;100.00;98009.78;1766311;79;22278;-67
2021/04/02 03:10:02;;;;;;;23.70;11.73;;;;;;;8.05;100.00;98008.09;1762678;79;20938;-65
2021/04/02 03:12:36;;;;;;;16.15;10.82;;;;;;;8.02;100.00;97997.59;1753899;80;20960;-66
2021/04/02 03:15:08;;;;;;;17.35;10.80;;;;;;;8.03;100.00;98011.14;1731862;80;21221;-66
2021/04/02 03:17:41;;;;;;;18.12;10.20;;;;;;;8.02;100.00;98013.80;1770217;79;21016;-67
2021/04/02 03:20:12;;;;;;;24.95;11.40;;;;;;;7.99;100.00;98001.58;1782295;79;21492;-66
2021/04/02 03:22:43;;;;;;;18.57;11.60;;;;;;;7.99;100.00;98006.83;1744495;80;21241;-67
2021/04/02 03:25:18;;;;;;;18.70;12.10;;;;;;;7.97;100.00;98002.05;1758050;80;21002;-68
2021/04/02 03:27:51;;;;;;;19.55;10.82;;;;;;;8.01;100.00;98007.67;1769352;79;21164;-67
2021/04/02 03:30:24;;;;;;;14.47;9.38;;;;;;;8.02;100.00;98001.53;1772078;79;21028;-68
2021/04/02 03:33:11;;;;;;;17.10;10.20;;;;;;;8.07;100.00;97999.74;1758122;80;22270;-70
2021/04/02 03:35:48;;;;;;;25.82;13.18;;;;;;;8.14;100.00;97989.56;1834969;77;22779;-68
2021/04/02 03:38:19;;;;;;;24.60;13.72;;;;;;;8.11;100.00;97990.92;1781780;79;21144;-68
2021/04/02 03:40:53;;;;;;;22.40;13.45;;;;;;;8.12;100.00;97988.72;1816696;78;21544;-67
2021/04/02 03:43:26;;;;;;;29.00;13.55;;;;;;;8.12;100.00;97987.85;1816864;78;21041;-68
2021/04/02 03:46:03;;;;;;;20.17;13.15;;;;;;;8.11;100.00;97984.80;1795730;79;21065;-67
2021/04/02 03:48:36;;;;;;;22.65;13.15;;;;;;;8.14;100.00;97986.07;1799455;78;21044;-66
2021/04/02 03:51:09;;;;;;;19.87;11.93;;;;;;;8.18;100.00;97984.69;1752678;80;20926;-66
2021/04/02 03:53:50;;;;;;;17.75;10.72;;;;;;;8.21;100.00;97972.81;1785395;80;21236;-67
2021/04/02 03:56:27;;;;;;;22.75;11.48;;;;;;;8.26;100.00;97974.51;1809229;79;20997;-67
2021/04/02 03:58:58;;;;;;;22.07;11.63;;;;;;;8.29;100.00;97974.45;1817497;78;20918;-67
2021/04/02 04:01:36;;;;;;;25.37;13.15;;;;;;;8.31;100.00;97967.42;1815239;79;20938;-68
2021/04/02 04:04:08;;;;;;;24.50;12.10;;;;;;;8.30;100.00;97965.23;1817442;78;20903;-67
2021/04/02 04:06:40;;;;;;;20.12;11.70;;;;;;;8.30;100.00;97957.36;1817406;78;22249;-65
2021/04/02 04:09:15;;;;;;;20.97;11.88;;;;;;;8.28;100.00;97956.52;1817787;78;20950;-64
2021/04/02 04:11:49;;;;;;;24.37;13.13;;;;;;;8.33;100.00;97951.19;1752048;81;20910;-64
2021/04/02 04:14:22;;;;;;;19.40;11.90;;;;;;;8.34;100.00;97946.38;1751446;81;20998;-67
2021/04/02 04:16:57;;;;;;;25.08;12.00;;;;;;;8.33;100.00;97952.08;1752481;81;21014;-67
2021/04/02 04:19:29;;;;;;;23.55;13.45;;;;;;;8.33;100.00;97953.81;1743933;81;21214;-66
2021/04/02 04:22:02;;;;;;;18.05;11.18;;;;;;;8.33;100.00;97974.83;1771569;80;20930;-67
2021/04/02 04:24:33;;;;;;;25.25;11.40;;;;;;;8.35;100.00;97998.04;1779701;80;28383;-66
2021/04/02 04:27:07;;;;;;;18.75;11.90;;;;;;;8.36;100.00;98001.95;1779570;80;20930;-67
2021/04/02 04:29:46;;;;;;;25.00;13.20;;;;;;;8.36;100.00;97989.27;1772734;80;21473;-67
2021/04/02 04:32:19;;;;;;;19.05;11.43;;;;;;;8.37;100.00;97994.50;1766116;81;21195;-67
2021/04/02 04:34:53;;;;;;;20.32;12.85;;;;;;;8.35;100.00;97999.35;1768990;80;21129;-67
2021/04/02 04:37:24;;;;;;;23.00;13.03;;;;;;;8.33;100.00;97998.48;1771955;81;20939;-67
2021/04/02 04:39:54;;;;;;;27.25;11.25;;;;;;;8.36;100.00;97992.77;1789569;79;20950;-68
2021/04/02 04:42:25;;;;;;;19.98;10.28;;;;;;;8.39;100.00;98001.04;1799002;79;21054;-67
2021/04/02 04:44:56;;;;;;;18.25;10.60;;;;;;;8.45;100.00;98006.20;1798871;79;21362;-66
2021/04/02 04:47:27;;;;;;;20.82;11.88;;;;;;;8.49;100.00;98004.81;1800713;79;20999;-67
2021/04/02 04:49:58;;;;;;;18.42;11.05;;;;;;;8.55;100.00;98008.27;1800845;78;20959;-66
2021/04/02 04:52:30;;;;;;;17.17;10.98;;;;;;;8.62;100.00;98012.52;1786631;79;21002;-67
2021/04/02 04:55:04;;;;;;;18.60;11.20;;;;;;;8.69;100.00;98020.28;1784659;79;21476;-67
2021/04/02 04:57:36;;;;;;;17.57;10.80;;;;;;;8.75;100.00;98013.61;1784624;79;21185;-67
2021/04/02 05:00:07;;;;;;;16.50;11.38;;;;;;;8.82;100.00;98012.61;1784789;79;21489;-67
2021/04/02 05:02:36;;;;;;;15.40;11.00;;;;;;;8.86;100.00;98016.05;1815714;78;20922;-67
2021/04/02 05:05:07;;;;;;;18.55;11.63;;;;;;;8.88;100.00;98014.27;1749557;81;20938;-67
2021/04/02 05:07:38;;;;;;;52.67;31.60;;;;;;;8.91;100.00;98019.47;1805162;79;20915;-67
2021/04/02 05:10:09;;;;;;;28.00;18.15;;;;;;;8.98;100.00;98024.17;1744094;82;22131;-68
2021/04/02 05:12:39;;;;;;;22.13;14.85;;;;;;;9.06;100.00;98027.56;1809883;79;21469;-67
2021/04/02 05:15:11;;;;;;;19.90;12.07;;;;;;;9.04;100.00;98027.59;1713289;82;20963;-67
2021/04/02 05:17:42;;;;;;;18.40;11.97;;;;;;;9.05;100.00;98030.64;1811138;79;21140;-69
2021/04/02 05:20:14;;;;;;;14.85;10.43;;;;;;;9.03;100.00;98019.73;1815592;79;20982;-68
2021/04/02 05:22:45;;;;;;;19.45;10.95;;;;;;;9.01;100.00;98019.76;1746460;81;22145;-68
2021/04/02 05:25:15;;;;;;;19.77;13.62;;;;;;;9.02;100.00;98016.23;1746273;82;20942;-68
2021/04/02 05:27:46;;;;;;;88.52;63.05;;;;;;;9.05;100.00;98009.59;1747337;81;20969;-68
2021/04/02 05:30:18;;;;;;;56.90;37.98;;;;;;;9.09;100.00;98002.52;1768749;80;20923;-68
2021/04/02 05:32:49;;;;;;;30.45;21.90;;;;;;;9.10;100.00;98000.30;1744257;81;20939;-67
2021/04/02 05:35:19;;;;;;;21.95;15.03;;;;;;;9.15;100.00;97992.75;1804265;79;21358;-68
2021/04/02 05:37:50;;;;;;;17.50;11.88;;;;;;;9.19;100.00;97982.16;1717779;82;21623;-68
2021/04/02 05:40:20;;;;;;;16.42;10.82;;;;;;;9.21;100.00;97977.29;1728863;82;21197;-68
2021/04/02 05:43:01;;;;;;;15.03;10.28;;;;;;;9.24;100.00;97979.86;1728821;82;21621;-68
2021/04/02 05:45:32;;;;;;;15.68;10.63;;;;;;;9.30;100.00;97968.34;1744449;81;21129;-67
2021/04/02 05:48:02;;;;;;;14.70;11.00;;;;;;;9.35;100.00;97967.80;1738280;82;22141;-67
2021/04/02 05:50:33;;;;;;;15.25;11.28;;;;;;;9.39;100.00;97962.89;1736467;82;21703;-68
2021/04/02 05:53:05;;;;;;;18.85;10.15;;;;;;;9.42;100.00;97961.07;1733570;82;21625;-68
2021/04/02 05:55:42;;;;;;;14.53;10.10;;;;;;;9.31;100.00;97964.37;1733732;82;21035;-66
2021/04/02 05:58:12;;;;;;;13.28;9.55;;;;;;;9.14;100.00;97954.62;1738316;81;21084;-66
2021/04/02 06:00:42;;;;;;;15.65;10.68;;;;;;;9.11;100.00;97956.00;1755623;79;21197;-65
2021/04/02 06:03:13;;;;;;;14.60;11.10;;;;;;;9.15;100.00;97955.05;1739100;81;20969;-65
2021/04/02 06:05:42;;;;;;;14.95;11.30;;;;;;;9.22;100.00;97956.66;1716582;82;21079;-66
2021/04/02 06:08:14;;;;;;;12.80;10.45;;;;;;;9.26;100.00;97947.80;1738884;81;21492;-67
2021/04/02 06:10:46;;;;;;;16.52;10.35;;;;;;;9.33;100.00;97948.09;1742071;79;20945;-66
2021/04/02 06:13:16;;;;;;;17.17;11.63;;;;;;;9.40;100.00;97949.70;1743704;82;21380;-66
2021/04/02 06:15:45;;;;;;;17.48;12.82;;;;;;;9.43;100.00;97943.52;1743631;81;21513;-66
2021/04/02 06:18:15;;;;;;;15.45;11.22;;;;;;;9.45;100.00;97937.31;1807199;79;20943;-65
2021/04/02 06:20:47;;;;;;;15.65;11.43;;;;;;;9.47;100.00;97926.79;1769725;80;20922;-66
2021/04/02 06:23:22;;;;;;;18.35;12.40;;;;;;;9.48;100.00;97912.73;1769743;81;20940;-66
2021/04/02 06:25:56;;;;;;;16.00;12.45;;;;;;;9.48;100.00;97917.12;1739610;81;21429;-65
2021/04/02 06:28:34;;;;;;;22.05;14.15;;;;;;;9.46;100.00;97927.23;1769674;81;20940;-65
2021/04/02 06:31:07;;;;;;;20.90;12.75;;;;;;;9.50;100.00;97935.07;1737626;82;20981;-65
2021/04/02 06:33:46;;;;;;;17.98;12.05;;;;;;;9.52;100.00;97929.32;1728746;82;21141;-65
2021/04/02 06:36:20;;;;;;;16.82;13.55;;;;;;;9.46;100.00;97925.05;1747597;80;20939;-64
2021/04/02 06:39:07;;;;;;;22.93;13.88;;;;;;;9.45;100.00;97921.97;1740742;80;21611;-65
2021/04/02 06:41:41;;;;;;;25.17;15.50;;;;;;;9.48;100.00;97912.73;1747528;81;21176;-66
2021/04/02 06:44:12;;;;;;;21.17;14.77;;;;;;;9.58;100.00;97910.31;1746324;80;20967;-66
2021/04/02 06:46:42;;;;;;;21.12;14.47;;;;;;;9.67;100.00;97910.11;1795721;79;20894;-64
2021/04/02 06:49:15;;;;;;;17.15;12.20;;;;;;;9.78;100.00;97907.23;1806786;77;21049;-65
2021/04/02 06:51:50;;;;;;;17.27;11.95;;;;;;;9.92;100.00;97910.86;1812442;79;21362;-65
2021/04/02 06:54:24;;;;;;;15.18;10.30;;;;;;;9.97;100.00;97928.33;1812327;79;21144;-66
2021/04/02 06:57:09;;;;;;;15.03;11.12;;;;;;;10.06;100.00;97929.42;1812428;78;20891;-65
2021/04/02 06:59:39;;;;;;;;;;;;;;;10.16;100.00;97920.84;1818562;78;21144;-66
2021/04/02 07:02:09;;;;;;;17.67;12.37;;;;;;;10.29;100.00;97919.67;1823350;78;20132;-67
2021/04/02 07:04:38;;;;;;;15.68;11.38;;;;;;;10.41;100.00;97917.22;1796044;80;22273;-67
2021/04/02 07:07:09;;;;;;;15.75;10.98;;;;;;;10.53;100.00;97923.50;1812147;77;21123;-66
2021/04/02 07:09:41;;;;;;;16.30;11.83;;;;;;;10.68;100.00;97938.06;1797482;78;21013;-66
2021/04/02 07:12:11;;;;;;;18.10;12.50;;;;;;;10.80;100.00;97938.19;1796055;80;21029;-66
2021/04/02 07:14:42;;;;;;;17.92;13.22;;;;;;;10.80;100.00;97942.15;1771877;78;20997;-64
2021/04/02 07:17:13;;;;;;;15.63;11.85;;;;;;;10.81;100.00;97947.38;1821229;78;21572;-64
2021/04/02 07:19:42;;;;;;;14.55;11.05;;;;;;;10.82;100.00;97944.30;1745840;81;21624;-65
2021/04/02 07:22:12;;;;;;;15.98;11.60;;;;;;;10.80;100.00;97956.20;1821522;78;21572;-65
2021/04/02 07:24:42;;;;;;;15.40;12.58;;;;;;;10.81;100.00;97955.30;1812394;78;21037;-65
2021/04/02 07:27:12;;;;;;;16.87;11.78;;;;;;;10.79;100.00;97956.24;1812416;79;21009;-65
2021/04/02 07:29:42;;;;;;;17.17;10.93;;;;;;;10.78;100.00;97955.83;1818200;78;21292;-65
2021/04/02 07:32:12;;;;;;;12.50;10.20;;;;;;;10.77;100.00;97949.69;1757479;81;21663;-65
2021/04/02 07:34:45;;;;;;;17.85;11.83;;;;;;;10.78;100.00;97952.73;1758232;81;21142;-65
2021/04/02 07:37:19;;;;;;;16.60;12.10;;;;;;;10.80;100.00;97945.66;1727242;81;21060;-65
2021/04/02 07:39:54;;;;;;;18.73;12.45;;;;;;;10.80;100.00;97948.74;1749132;80;21453;-66
2021/04/02 07:42:25;;;;;;;13.85;10.25;;;;;;;10.83;100.00;97951.30;1739181;81;21208;-65
2021/04/02 07:44:55;;;;;;;14.30;10.32;;;;;;;10.84;100.00;97951.27;1739095;82;20962;-65
2021/04/02 07:47:25;;;;;;;14.05;11.03;;;;;;;10.89;100.00;97948.08;1754217;81;21480;-65
2021/04/02 07:49:58;;;;;;;17.00;10.70;;;;;;;10.92;100.00;97949.77;1733104;82;20931;-66
2021/04/02 07:52:38;;;;;;;15.13;11.12;;;;;;;10.96;100.00;97951.42;1739198;81;20917;-66
2021/04/02 07:55:19;;;;;;;16.95;11.48;;;;;;;10.99;100.00;97944.73;1739112;82;21376;-65
2021/04/02 07:58:05;;;;;;;14.35;11.33;;;;;;;11.02;100.00;97944.20;1739213;82;21108;-65
2021/04/02 08:00:56;;;;;;;17.80;11.55;;;;;;;11.06;100.00;97943.66;1761113;81;21011;-66
2021/04/02 08:03:30;;;;;;;15.58;11.22;;;;;;;11.08;100.00;97951.54;1748101;81;20942;-67
2021/04/02 08:06:13;;;;;;;21.65;13.35;;;;;;;11.11;100.00;97954.96;1752376;81;21017;-66
2021/04/02 08:08:47;;;;;;;26.17;15.55;;;;;;;11.14;100.00;97954.88;1743242;82;21982;-65
2021/04/02 08:11:38;;;;;;;19.00;13.18;;;;;;;11.16;100.00;97960.11;1752433;81;21049;-64
2021/04/02 08:14:09;;;;;;;16.25;11.83;;;;;;;11.19;100.00;97958.25;1740904;81;21014;-65
2021/04/02 08:16:54;;;;;;;19.23;13.32;;;;;;;11.23;100.00;97966.50;1739369;81;21135;-64
2021/04/02 08:19:39;;;;;;;17.50;11.93;;;;;;;11.26;100.00;97972.15;1783395;79;20986;-66
2021/04/02 08:22:11;;;;;;;31.68;20.52;;;;;;;11.31;100.00;97972.89;1771714;79;21193;-66
2021/04/02 08:24:47;;;;;;;34.18;24.87;;;;;;;11.33;100.00;97973.25;1765907;81;20965;-66
2021/04/02 08:27:18;;;;;;;20.55;14.63;;;;;;;11.39;100.00;97973.57;1783868;78;21159;-66
2021/04/02 08:30:01;;;;;;;18.12;12.82;;;;;;;11.42;100.00;97965.56;1740038;81;21025;-65
2021/04/02 08:32:19;;;;;;;15.98;12.75;;;;;;;11.42;100.00;97976.13;1763654;80;21612;-66
2021/04/02 08:34:49;;;;;;;17.10;12.00;;;;;;;11.45;100.00;97968.56;1738152;80;21332;-66
2021/04/02 08:37:19;;;;;;;22.07;14.05;;;;;;;11.50;100.00;97960.06;1739721;81;21049;-66
2021/04/02 08:39:53;;;;;;;16.80;13.25;;;;;;;11.56;100.00;97957.23;1745543;79;21048;-66
2021/04/02 08:42:25;;;;;;;20.00;14.43;;;;;;;11.64;100.00;97961.84;1756775;81;20968;-67
2021/04/02 08:44:56;;;;;;;20.55;15.30;;;;;;;11.72;100.00;97958.52;1758364;80;21077;-66
2021/04/02 08:47:27;;;;;;;19.75;14.05;;;;;;;11.77;100.00;97946.04;1752356;81;21234;-65
2021/04/02 08:49:57;;;;;;;18.27;13.85;;;;;;;11.79;100.00;97943.38;1732545;81;20952;-66
2021/04/02 08:52:29;;;;;;;18.82;13.22;;;;;;;11.82;100.00;97945.93;1787496;79;20951;-66
2021/04/02 08:55:02;;;;;;;21.80;14.05;;;;;;;11.88;100.00;97946.64;1787376;79;21056;-66
2021/04/02 08:57:37;;;;;;;22.25;13.93;;;;;;;11.97;100.00;97949.45;1763012;81;21479;-67
2021/04/02 09:00:09;;;;;;;20.95;14.50;;;;;;;12.05;100.00;97951.86;1762995;80;21375;-66
2021/04/02 09:02:40;;;;;;;;;;;;;;;12.08;100.00;97951.31;1765491;80;21131;-65
2021/04/02 09:05:13;;;;;;;17.48;13.65;;;;;;;12.16;100.00;97951.94;1762836;80;20220;-65
2021/04/02 09:07:44;;;;;;;17.85;13.53;;;;;;;12.22;100.00;97954.84;1762953;81;20913;-65
2021/04/02 09:10:16;;;;;;;18.30;13.43;;;;;;;12.28;100.00;97952.00;1763271;80;20929;-65
2021/04/02 09:12:48;;;;;;;19.98;16.17;;;;;;;12.31;100.00;97953.25;1763227;81;21358;-66
2021/04/02 09:15:29;;;;;;;22.93;16.60;;;;;;;12.26;100.00;97952.05;1754332;80;21005;-67
2021/04/02 09:18:28;;;;;;;21.82;15.48;;;;;;;12.24;100.00;97955.66;1767184;79;20929;-66
2021/04/02 09:20:53;;;;;;;25.43;14.40;;;;;;;12.23;100.00;97949.96;1752552;80;21050;-66
2021/04/02 09:23:23;;;;;;;19.90;14.73;;;;;;;12.27;100.00;97958.20;1755297;80;21578;-65
2021/04/02 09:25:53;;;;;;;20.02;14.45;;;;;;;12.34;100.00;97961.55;1697752;82;21444;-66
2021/04/02 09:28:25;;;;;;;22.90;14.68;;;;;;;12.38;100.00;97963.17;1755197;80;21566;-66
2021/04/02 09:31:15;;;;;;;17.32;14.53;;;;;;;12.39;100.00;97956.97;1738742;82;20933;-66
2021/04/02 09:34:03;;;;;;;18.77;13.62;;;;;;;12.45;100.00;97958.96;1804360;78;21060;-67
2021/04/02 09:36:40;;;;;;;17.80;13.88;;;;;;;12.42;100.00;97964.35;1710041;83;20967;-64
2021/04/02 09:39:25;;;;;;;19.52;15.63;;;;;;;12.41;100.00;97973.20;1721746;82;21371;-64
2021/04/02 09:42:04;;;;;;;21.70;16.75;;;;;;;12.33;100.00;97974.36;1726210;81;20994;-63
2021/04/02 09:44:38;;;;;;;25.68;18.07;;;;;;;12.28;100.00;97974.47;1717254;81;20938;-65
2021/04/02 09:47:12;;;;;;;22.55;16.07;;;;;;;12.28;100.00;97978.44;1712283;82;21100;-65
2021/04/02 09:49:43;;;;;;;22.10;16.40;;;;;;;12.22;100.00;97982.14;1713053;81;20934;-65
2021/04/02 09:52:13;;;;;;;20.35;14.90;;;;;;;12.17;100.00;97984.06;1726231;81;21204;-65
2021/04/02 09:54:43;;;;;;;22.55;16.37;;;;;;;12.15;100.00;97985.89;1770626;81;20946;-64
2021/04/02 09:57:13;;;;;;;22.05;16.60;;;;;;;12.15;100.00;97981.06;1770717;81;21496;-65
2021/04/02 09:59:44;;;;;;;23.10;16.35;;;;;;;12.13;100.00;97986.85;1770689;81;21491;-65
2021/04/02 10:02:15;;;;;;;42.43;22.90;;;;;;;12.14;100.00;97984.62;1770724;81;21060;-65
2021/04/02 10:04:45;;;;;;;33.75;21.95;;;;;;;12.15;100.00;97979.28;1770637;81;21368;-65
2021/04/02 10:07:15;;;;;;;26.85;19.60;;;;;;;12.18;100.00;97977.00;1770642;81;20954;-61
2021/04/02 10:09:47;;;;;;;23.57;18.10;;;;;;;12.16;100.00;97974.86;1725816;81;20943;-62
2021/04/02 10:12:17;;;;;;;26.33;19.82;;;;;;;12.17;100.00;97972.63;1710856;83;21005;-62
2021/04/02 10:14:48;;;;;;;22.52;18.77;;;;;;;12.16;100.00;97973.54;1707434;83;21559;-64
2021/04/02 10:17:25;;;;;;;31.62;21.70;;;;;;;12.15;100.00;97974.45;1697204;82;21437;-64
2021/04/02 10:19:56;;;;;;;26.93;21.00;;;;;;;12.12;100.00;97968.80;1697219;82;20970;-64
2021/04/02 10:22:29;;;;;;;29.35;19.25;;;;;;;12.10;100.00;97968.44;1697162;82;21010;-64
2021/04/02 10:25:01;;;;;;;25.75;19.45;;;;;;;12.11;100.00;97964.89;1730800;80;21042;-64
2021/04/02 10:27:32;;;;;;;28.35;21.02;;;;;;;12.11;100.00;97962.24;1701186;83;20930;-63
2021/04/02 10:30:25;;;;;;;28.07;20.45;;;;;;;12.13;100.00;97965.25;1715812;83;22143;-63
2021/04/02 10:32:55;;;;;;;26.73;20.27;;;;;;;12.15;100.00;97967.39;1591411;88;21330;-61
2021/04/02 10:35:28;;;;;;;28.90;21.23;;;;;;;12.18;100.00;97962.00;1616613;87;21120;-61
2021/04/02 10:37:57;;;;;;;28.40;20.55;;;;;;;12.21;100.00;97962.36;1644141;85;21630;-66
2021/04/02 10:40:26;;;;;;;24.92;19.52;;;;;;;12.23;100.00;97960.08;1645403;85;21277;-65
2021/04/02 10:42:57;;;;;;;28.23;21.00;;;;;;;12.23;100.00;97966.69;1645441;85;21225;-64
2021/04/02 10:45:28;;;;;;;33.90;26.05;;;;;;;12.21;100.00;97963.69;1613481;87;21259;-66
2021/04/02 10:47:58;;;;;;;36.28;27.48;;;;;;;12.21;100.00;97959.72;1635880;85;21016;-65
2021/04/02 10:50:28;;;;;;;67.85;45.98;;;;;;;12.24;100.00;97964.45;1642789;85;21056;-66
2021/04/02 10:52:58;;;;;;;97.12;63.38;;;;;;;12.23;100.00;97957.89;1642803;85;21189;-65
2021/04/02 10:55:29;;;;;;;50.50;32.58;;;;;;;12.25;100.00;97962.67;1642849;85;21382;-65
2021/04/02 10:57:59;;;;;;;50.00;32.95;;;;;;;12.28;100.00;97964.77;1642703;85;21058;-65
2021/04/02 11:00:30;;;;;;;38.95;29.18;;;;;;;12.27;100.00;97963.03;1642326;87;21069;-64
2021/04/02 11:03:00;;;;;;;33.35;25.02;;;;;;;12.26;100.00;97963.95;1642747;86;21052;-65
2021/04/02 11:05:31;;;;;;;26.30;20.92;;;;;;;12.28;100.00;97961.25;1667205;85;21041;-64
2021/04/02 11:08:02;;;;;;;;;;;;;;;12.26;100.00;97963.95;1669593;85;21205;-64
2021/04/02 11:10:32;;;;;;;24.72;19.57;;;;;;;12.24;100.00;97958.30;1667180;85;20136;-65
2021/04/02 11:13:03;;;;;;;25.17;19.57;;;;;;;12.23;100.00;97960.08;1667123;84;21112;-65
2021/04/02 11:15:33;;;;;;;22.80;16.82;;;;;;;12.20;100.00;97966.78;1667136;84;21113;-64
2021/04/02 11:18:04;;;;;;;19.10;15.80;;;;;;;12.15;100.00;97965.20;1633094;85;21119;-65
2021/04/02 11:20:34;;;;;;;19.17;15.60;;;;;;;12.07;100.00;97972.50;1642877;85;22196;-65
2021/04/02 11:23:04;;;;;;;23.77;18.52;;;;;;;11.98;100.00;97968.37;1643505;85;20969;-65
2021/04/02 11:25:35;;;;;;;26.12;18.52;;;;;;;11.85;100.00;97970.52;1659879;83;20921;-64
2021/04/02 11:28:07;;;;;;;26.80;18.35;;;;;;;11.71;100.00;97980.56;1687664;83;20976;-64
2021/04/02 11:30:37;;;;;;;25.05;17.87;;;;;;;11.60;100.00;97978.69;1687708;83;20961;-64
2021/04/02 11:33:07;;;;;;;22.22;15.40;;;;;;;11.51;100.00;97977.18;1724010;83;21498;-64
2021/04/02 11:35:38;;;;;;;18.75;14.18;;;;;;;11.45;100.00;97977.81;1702838;82;20974;-64
2021/04/02 11:38:08;;;;;;;18.23;14.73;;;;;;;11.30;100.00;97973.80;1689390;85;21109;-64
2021/04/02 11:40:39;;;;;;;20.27;12.98;;;;;;;11.17;100.00;97978.55;1689388;85;20975;-65
2021/04/02 11:43:10;;;;;;;12.68;10.40;;;;;;;11.11;100.00;97985.31;1689439;85;20970;-64
2021/04/02 11:45:41;;;;;;;12.13;9.43;;;;;;;11.02;100.00;97984.23;1689409;85;21423;-64
2021/04/02 11:48:11;;;;;;;12.03;9.35;;;;;;;10.96;100.00;97984.40;1689321;84;20962;-65
2021/04/02 11:50:44;;;;;;;12.58;9.23;;;;;;;10.92;100.00;97986.70;1673953;85;21071;-66